Time;durP1;ratioP1;P1;durP2;ratioP2;P2;SDS_P1;SDS_P2;PMS_P1;PMS_P2;Temp;Humidity;BMP_temperature;BMP_pressure;BME280_temperature;BME280_humidity;BME280_pressure;Samples;Min_cycle;Max_cycle;Signal;HPM_P1;HPM_P2
2023/03/03 00:00:06;;;;;;;25.90;13.57;;;5.00;99.90;;;;;;4210496;28;20049;-61
2023/03/03 00:02:07;;;;;;;34.77;17.80;;;5.00;99.90;;;;;;4212458;28;20035;-67
2023/03/03 00:04:08;;;;;;;36.40;20.67;;;4.90;99.90;;;;;;4211809;28;20054;-61
2023/03/03 00:06:12;;;;;;;37.57;20.37;;;4.80;99.90;;;;;;4212287;28;20036;-62
2023/03/03 00:08:13;;;;;;;37.57;20.63;;;4.70;99.90;;;;;;4212454;28;20074;-62
2023/03/03 00:10:15;;;;;;;47.40;23.57;;;4.80;99.90;;;;;;4211814;28;20036;-62
2023/03/03 00:12:28;;;;;;;47.77;23.50;;;4.80;99.90;;;;;;4212559;28;20028;-61
2023/03/03 00:14:32;;;;;;;37.20;18.83;;;4.70;99.90;;;;;;4211923;28;20024;-67
2023/03/03 00:16:37;;;;;;;26.40;13.80;;;4.70;99.90;;;;;;4212687;28;20048;-62
2023/03/03 00:18:44;;;;;;;26.37;13.23;;;4.70;99.90;;;;;;4210642;28;20415;-61
2023/03/03 00:20:53;;;;;;;26.43;12.80;;;4.70;99.90;;;;;;4212925;28;20463;-61
2023/03/03 00:22:54;;;;;;;25.83;13.70;;;4.70;99.90;;;;;;4211269;28;20032;-61
2023/03/03 00:25:20;;;;;;;70.97;30.43;;;4.70;99.90;;;;;;4212308;28;20113;-62
2023/03/03 00:27:33;;;;;;;79.77;35.50;;;4.80;99.90;;;;;;4210502;28;20032;-61
2023/03/03 00:29:43;;;;;;;62.20;27.47;;;4.80;99.90;;;;;;4212568;28;20779;-61
2023/03/03 00:31:44;;;;;;;45.60;22.70;;;4.80;99.90;;;;;;4211563;28;20023;-61
2023/03/03 00:33:53;;;;;;;35.73;20.83;;;4.80;99.90;;;;;;4212525;28;20113;-61
2023/03/03 00:36:20;;;;;;;26.00;15.07;;;4.80;99.90;;;;;;4211452;28;20054;-61
2023/03/03 00:38:22;;;;;;;47.33;15.20;;;4.80;99.90;;;;;;4211691;28;20040;-63
2023/03/03 00:40:26;;;;;;;20.60;12.13;;;4.90;99.90;;;;;;4211233;28;20078;-62
2023/03/03 00:42:27;;;;;;;23.47;12.30;;;4.90;99.90;;;;;;4212798;28;20508;-63
2023/03/03 00:44:39;;;;;;;22.00;11.63;;;4.80;99.90;;;;;;4210806;28;20036;-62
2023/03/03 00:46:40;;;;;;;20.73;11.33;;;4.90;99.90;;;;;;4212180;28;20361;-62
2023/03/03 00:48:42;;;;;;;20.43;10.60;;;4.90;99.90;;;;;;4211190;28;20121;-62
2023/03/03 00:50:43;;;;;;;18.97;10.43;;;4.90;99.90;;;;;;4212405;28;20024;-62
2023/03/03 00:53:10;;;;;;;20.00;10.43;;;4.90;99.90;;;;;;4211636;28;20181;-63
2023/03/03 00:55:11;;;;;;;18.23;9.33;;;4.90;99.90;;;;;;4211598;28;20829;-62
2023/03/03 00:57:12;;;;;;;21.70;9.70;;;4.90;99.90;;;;;;4211461;28;20032;-62
2023/03/03 00:59:13;;;;;;;24.33;10.37;;;4.90;99.90;;;;;;4212530;28;20269;-64
2023/03/03 01:01:16;;;;;;;16.80;9.73;;;4.90;99.90;;;;;;4211148;28;20044;-62
2023/03/03 01:03:20;;;;;;;17.63;9.73;;;4.90;99.90;;;;;;4210855;28;20101;-62
2023/03/03 01:05:22;;;;;;;16.23;8.93;;;4.80;99.90;;;;;;4210849;28;20090;-62
2023/03/03 01:07:23;;;;;;;16.73;8.60;;;4.80;99.90;;;;;;4212165;28;20422;-64
2023/03/03 01:09:24;;;;;;;15.57;9.07;;;4.80;99.90;;;;;;4211040;28;20113;-62
2023/03/03 01:11:27;;;;;;;21.83;10.03;;;4.80;99.90;;;;;;4212089;28;20040;-62
2023/03/03 01:13:33;;;;;;;23.43;10.37;;;4.80;99.90;;;;;;4211004;28;20012;-62
2023/03/03 01:15:34;;;;;;;14.50;8.87;;;4.80;99.90;;;;;;4211575;28;20036;-64
2023/03/03 01:17:36;;;;;;;15.83;8.50;;;4.80;99.90;;;;;;4211320;28;20415;-65
2023/03/03 01:19:37;;;;;;;14.27;8.53;;;4.80;99.90;;;;;;4209820;28;20020;-62
2023/03/03 01:21:38;;;;;;;16.23;7.90;;;4.80;99.90;;;;;;4211631;28;20824;-62
2023/03/03 01:23:40;;;;;;;14.83;7.67;;;4.80;99.90;;;;;;4210354;28;20040;-67
2023/03/03 01:25:41;;;;;;;15.23;8.03;;;4.80;99.90;;;;;;4211729;28;20056;-62
2023/03/03 01:27:42;;;;;;;14.97;8.10;;;4.80;99.90;;;;;;4210765;28;20459;-63
2023/03/03 01:29:43;;;;;;;15.43;8.40;;;4.80;99.90;;;;;;4210281;28;20085;-61
2023/03/03 01:31:44;;;;;;;16.17;7.50;;;4.80;99.90;;;;;;4210833;28;20428;-62
2023/03/03 01:33:45;;;;;;;17.77;8.63;;;4.80;99.90;;;;;;4211561;28;20036;-62
2023/03/03 01:35:47;;;;;;;13.53;7.43;;;4.80;99.90;;;;;;4210540;28;20284;-62
2023/03/03 01:37:48;;;;;;;15.40;8.30;;;4.80;99.90;;;;;;4211831;28;20430;-61
2023/03/03 01:39:51;;;;;;;17.53;8.27;;;4.80;99.90;;;;;;4210609;28;20817;-64
2023/03/03 01:41:53;;;;;;;14.57;7.13;;;4.80;99.90;;;;;;4211782;28;20085;-62
2023/03/03 01:43:54;;;;;;;18.40;8.00;;;4.80;99.90;;;;;;4210294;28;20741;-64
2023/03/03 01:45:58;;;;;;;14.30;7.73;;;4.80;99.90;;;;;;4211158;28;20036;-67
2023/03/03 01:48:03;;;;;;;12.60;7.67;;;4.80;99.90;;;;;;4210265;28;20740;-62
2023/03/03 01:50:11;;;;;;;14.20;7.83;;;4.80;99.90;;;;;;4211117;28;20028;-63
2023/03/03 01:52:34;;;;;;;14.80;7.90;;;4.80;99.90;;;;;;4210710;28;20036;-63
2023/03/03 01:54:43;;;;;;;13.70;7.63;;;4.80;99.90;;;;;;4211244;28;20044;-62
2023/03/03 01:56:44;;;;;;;15.90;7.53;;;4.80;99.90;;;;;;4210398;28;20329;-63
2023/03/03 01:59:17;;;;;;;13.93;7.70;;;4.80;99.90;;;;;;4211170;28;20020;-65
2023/03/03 02:01:23;;;;;;;12.67;6.87;;;4.80;99.90;;;;;;4210243;28;20094;-62
2023/03/03 02:03:25;;;;;;;18.07;7.60;;;4.80;99.90;;;;;;4211497;28;20052;-62
2023/03/03 02:05:27;;;;;;;15.77;7.03;;;4.80;99.90;;;;;;4210007;28;20056;-63
2023/03/03 02:07:30;;;;;;;18.67;8.63;;;4.80;99.90;;;;;;4211245;28;20053;-62
2023/03/03 02:09:58;;;;;;;12.27;6.90;;;4.80;99.90;;;;;;4210832;28;20028;-62
2023/03/03 02:12:05;;;;;;;16.37;6.67;;;4.80;99.90;;;;;;4210963;28;20655;-65
2023/03/03 02:14:07;;;;;;;16.23;7.17;;;4.80;99.90;;;;;;4210425;28;20028;-62
2023/03/03 02:16:08;;;;;;;23.80;7.40;;;4.80;99.90;;;;;;4211094;28;20053;-62
2023/03/03 02:18:13;;;;;;;20.47;7.07;;;4.80;99.90;;;;;;4210603;28;20020;-63
2023/03/03 02:20:36;;;;;;;18.27;8.37;;;4.80;99.90;;;;;;4210479;28;20085;-63
2023/03/03 02:22:49;;;;;;;16.53;8.77;;;4.80;99.90;;;;;;4207653;28;20024;-62
2023/03/03 02:24:58;;;;;;;16.63;8.57;;;4.70;99.90;;;;;;4210851;28;20040;-63
2023/03/03 02:27:00;;;;;;;17.05;7.63;;;4.80;99.90;;;;;;4210201;28;20434;-68
2023/03/03 02:29:02;;;;;;;24.97;8.10;;;4.80;99.90;;;;;;4211337;28;20024;-62
2023/03/03 02:31:09;;;;;;;19.07;8.20;;;4.80;99.90;;;;;;4210646;28;20036;-62
2023/03/03 02:33:10;;;;;;;20.33;8.17;;;4.80;99.90;;;;;;4210750;28;20277;-62
2023/03/03 02:35:29;;;;;;;19.00;9.60;;;4.70;99.90;;;;;;4210335;28;20105;-63
2023/03/03 02:37:30;;;;;;;24.40;9.00;;;4.80;99.90;;;;;;4194140;28;20078;-63
2023/03/03 02:39:31;;;;;;;23.00;8.97;;;4.80;99.90;;;;;;4194277;28;20036;-62
2023/03/03 02:41:56;;;;;;;25.43;9.83;;;4.70;99.90;;;;;;4206571;28;20422;-62
2023/03/03 02:44:09;;;;;;;23.60;8.67;;;4.80;99.90;;;;;;4189675;28;20330;-62
2023/03/03 02:46:10;;;;;;;15.53;7.83;;;4.80;99.90;;;;;;4210571;28;20089;-62
2023/03/03 02:48:11;;;;;;;22.23;7.70;;;4.80;99.90;;;;;;4210484;28;20447;-64
2023/03/03 02:50:12;;;;;;;14.70;7.17;;;4.70;99.90;;;;;;4210526;28;20028;-67
2023/03/03 02:52:16;;;;;;;11.20;6.27;;;4.70;99.90;;;;;;4214098;28;20152;-63
2023/03/03 02:54:21;;;;;;;14.30;7.40;;;4.70;99.90;;;;;;4213205;28;20036;-68
2023/03/03 02:56:22;;;;;;;13.90;6.67;;;4.80;99.90;;;;;;4214470;28;20743;-63
2023/03/03 02:58:24;;;;;;;14.60;6.77;;;4.70;99.90;;;;;;4212890;28;20288;-63
2023/03/03 03:00:25;;;;;;;13.57;6.77;;;4.70;99.90;;;;;;4214481;28;20048;-64
2023/03/03 03:02:26;;;;;;;18.30;6.60;;;4.70;99.90;;;;;;4212624;28;20281;-64
2023/03/03 03:04:27;;;;;;;16.67;7.37;;;4.70;99.90;;;;;;4213767;28;20020;-62
2023/03/03 03:06:28;;;;;;;16.13;6.80;;;4.70;99.90;;;;;;4212733;28;20289;-63
2023/03/03 03:08:29;;;;;;;11.77;6.97;;;4.70;99.90;;;;;;4214377;28;20326;-62
2023/03/03 03:10:31;;;;;;;13.93;6.47;;;4.70;99.90;;;;;;4212424;28;20032;-62
2023/03/03 03:12:32;;;;;;;19.77;6.73;;;4.70;99.90;;;;;;4213871;28;20691;-62
2023/03/03 03:14:34;;;;;;;15.23;7.23;;;4.70;99.90;;;;;;4213269;28;20036;-61
2023/03/03 03:16:36;;;;;;;13.97;6.47;;;4.70;99.90;;;;;;4213582;28;20338;-64
2023/03/03 03:18:37;;;;;;;17.97;6.83;;;4.70;99.90;;;;;;4213000;28;20314;-62
2023/03/03 03:20:39;;;;;;;17.80;7.57;;;4.70;99.90;;;;;;4213522;28;20024;-64
2023/03/03 03:22:40;;;;;;;15.70;6.90;;;4.70;99.90;;;;;;4213547;28;20031;-62
2023/03/03 03:24:41;;;;;;;18.40;7.97;;;4.70;99.90;;;;;;4212069;28;20097;-61
2023/03/03 03:26:42;;;;;;;14.77;7.67;;;4.70;99.90;;;;;;4213637;28;20028;-62
2023/03/03 03:28:44;;;;;;;16.50;7.37;;;4.70;99.90;;;;;;4212197;28;20656;-62
2023/03/03 03:30:45;;;;;;;14.40;7.50;;;4.70;99.90;;;;;;4213727;28;20016;-65
2023/03/03 03:32:46;;;;;;;15.10;6.37;;;4.70;99.90;;;;;;4212576;28;20043;-62
2023/03/03 03:34:47;;;;;;;13.77;6.70;;;4.70;99.90;;;;;;4212401;28;20651;-62
2023/03/03 03:36:49;;;;;;;17.53;6.60;;;4.70;99.90;;;;;;4212413;28;20040;-61
2023/03/03 03:38:51;;;;;;;18.77;7.70;;;4.60;99.90;;;;;;4213745;28;20028;-61
2023/03/03 03:40:53;;;;;;;27.63;13.07;;;4.70;99.90;;;;;;4211278;28;20126;-66
2023/03/03 03:42:55;;;;;;;20.67;9.33;;;4.70;99.90;;;;;;4213586;28;20070;-62
2023/03/03 03:44:56;;;;;;;18.70;7.13;;;4.70;99.90;;;;;;4212071;28;20297;-62
2023/03/03 03:46:57;;;;;;;18.80;7.47;;;4.70;99.90;;;;;;4212465;28;20916;-62
2023/03/03 03:48:58;;;;;;;12.67;6.80;;;4.70;99.90;;;;;;4211760;28;20496;-62
2023/03/03 03:50:59;;;;;;;13.70;5.97;;;4.70;99.90;;;;;;4213308;28;20326;-67
2023/03/03 03:53:01;;;;;;;16.63;7.27;;;4.70;99.90;;;;;;4213019;28;20024;-63
2023/03/03 03:55:02;;;;;;;13.93;6.57;;;4.70;99.90;;;;;;4211922;28;20280;-61
2023/03/03 03:57:04;;;;;;;14.60;6.97;;;4.70;99.90;;;;;;4212973;28;20094;-62
2023/03/03 03:59:06;;;;;;;14.30;6.80;;;4.70;99.90;;;;;;4211803;28;20042;-62
2023/03/03 04:01:07;;;;;;;11.93;7.03;;;4.70;99.90;;;;;;4213210;28;20077;-61
2023/03/03 04:03:09;;;;;;;11.87;6.50;;;4.70;99.90;;;;;;4210791;28;20070;-64
2023/03/03 04:05:10;;;;;;;22.10;8.20;;;4.70;99.90;;;;;;4212264;28;20040;-65
2023/03/03 04:07:12;;;;;;;20.60;7.77;;;4.70;99.90;;;;;;4211812;28;20036;-61
2023/03/03 04:09:13;;;;;;;19.83;8.63;;;4.70;99.90;;;;;;4213438;28;20040;-64
2023/03/03 04:11:14;;;;;;;11.97;6.63;;;4.70;99.90;;;;;;4211687;28;20035;-63
2023/03/03 04:13:15;;;;;;;12.17;7.40;;;4.70;99.90;;;;;;4212728;28;20484;-61
2023/03/03 04:15:16;;;;;;;13.57;6.70;;;4.70;99.90;;;;;;4211923;28;20028;-61
2023/03/03 04:17:23;;;;;;;14.57;6.37;;;4.70;99.90;;;;;;4212344;28;20093;-61
2023/03/03 04:19:24;;;;;;;14.03;6.80;;;4.70;99.90;;;;;;4211794;28;20081;-62
2023/03/03 04:21:26;;;;;;;18.33;6.50;;;4.70;99.90;;;;;;4212428;28;20268;-67
2023/03/03 04:23:27;;;;;;;17.13;7.13;;;4.70;99.90;;;;;;4212107;28;20089;-64
2023/03/03 04:25:29;;;;;;;17.20;7.60;;;4.70;99.90;;;;;;4211863;28;20102;-63
2023/03/03 04:27:34;;;;;;;11.47;5.93;;;4.70;99.90;;;;;;4212558;28;20054;-66
2023/03/03 04:29:35;;;;;;;16.67;7.60;;;4.70;99.90;;;;;;4211314;28;20101;-61
2023/03/03 04:31:36;;;;;;;13.60;7.13;;;4.70;99.90;;;;;;4212456;28;20496;-61
2023/03/03 04:33:37;;;;;;;17.30;6.70;;;4.70;99.90;;;;;;4211114;28;20024;-61
2023/03/03 04:35:38;;;;;;;15.73;6.40;;;4.70;99.90;;;;;;4212253;28;20028;-64
2023/03/03 04:37:40;;;;;;;15.50;6.50;;;4.70;99.90;;;;;;4211391;28;20849;-61
2023/03/03 04:39:41;;;;;;;12.17;7.20;;;4.70;99.90;;;;;;4212254;28;20314;-64
2023/03/03 04:41:42;;;;;;;15.77;7.00;;;4.70;99.90;;;;;;4211416;28;20265;-61
2023/03/03 04:43:43;;;;;;;16.43;7.93;;;4.70;99.90;;;;;;4212301;28;20093;-62
2023/03/03 04:45:44;;;;;;;15.77;7.37;;;4.70;99.90;;;;;;4210890;28;20081;-62
2023/03/03 04:47:45;;;;;;;22.20;7.60;;;4.70;99.90;;;;;;4211627;28;20085;-61
2023/03/03 04:49:47;;;;;;;14.13;6.87;;;4.70;99.90;;;;;;4211089;28;20024;-65
2023/03/03 04:51:48;;;;;;;20.20;8.10;;;4.70;99.90;;;;;;4212156;28;20032;-63
2023/03/03 04:53:49;;;;;;;15.93;7.07;;;4.70;99.90;;;;;;4210865;28;20480;-64
2023/03/03 04:55:51;;;;;;;14.53;7.70;;;4.70;99.90;;;;;;4211517;28;20483;-66
2023/03/03 04:57:53;;;;;;;15.67;7.63;;;4.70;99.90;;;;;;4211756;28;20256;-66
2023/03/03 04:59:54;;;;;;;18.07;7.03;;;4.70;99.90;;;;;;4211017;28;20563;-67
2023/03/03 05:01:55;;;;;;;23.00;8.53;;;4.70;99.90;;;;;;4211682;28;20032;-62
2023/03/03 05:03:56;;;;;;;17.53;7.30;;;4.70;99.90;;;;;;4210575;28;20036;-64
2023/03/03 05:05:57;;;;;;;35.63;12.67;;;4.70;99.90;;;;;;4211297;28;20044;-65
2023/03/03 05:07:58;;;;;;;26.23;11.40;;;4.80;99.90;;;;;;4210908;28;20040;-65
2023/03/03 05:10:00;;;;;;;35.70;15.10;;;4.80;99.90;;;;;;4209390;28;20319;-63
2023/03/03 05:12:01;;;;;;;27.90;11.33;;;4.80;99.90;;;;;;4209579;28;20272;-64
2023/03/03 05:14:02;;;;;;;22.40;10.43;;;4.70;99.90;;;;;;4209748;28;20473;-70
2023/03/03 05:16:03;;;;;;;19.07;9.50;;;4.80;99.90;;;;;;4210339;28;20024;-67
2023/03/03 05:18:05;;;;;;;12.50;7.90;;;4.80;99.90;;;;;;4211110;28;20272;-61
2023/03/03 05:20:07;;;;;;;18.63;8.47;;;4.80;99.90;;;;;;4208605;28;20073;-61
2023/03/03 05:22:09;;;;;;;18.93;8.17;;;4.80;99.90;;;;;;4211787;28;20024;-62
2023/03/03 05:24:12;;;;;;;17.70;9.10;;;4.90;99.90;;;;;;4207751;28;20848;-65
2023/03/03 05:26:14;;;;;;;14.73;7.70;;;4.90;99.90;;;;;;4209873;28;20293;-61
2023/03/03 05:28:15;;;;;;;19.17;8.57;;;4.90;99.90;;;;;;4209916;28;20048;-61
2023/03/03 05:30:16;;;;;;;13.73;8.47;;;4.90;99.90;;;;;;4210003;28;20116;-61
2023/03/03 05:32:18;;;;;;;18.20;8.10;;;4.90;99.90;;;;;;4211483;28;20044;-62
2023/03/03 05:34:19;;;;;;;19.57;9.00;;;4.90;99.90;;;;;;4210270;28;20472;-62
2023/03/03 05:36:21;;;;;;;19.33;9.20;;;4.90;99.90;;;;;;4211159;28;20036;-62
2023/03/03 05:38:23;;;;;;;25.13;9.07;;;5.00;99.90;;;;;;4210217;28;20101;-63
2023/03/03 05:40:25;;;;;;;28.13;9.17;;;5.00;99.90;;;;;;4211082;28;20088;-62
2023/03/03 05:42:27;;;;;;;20.17;8.80;;;5.00;99.90;;;;;;4210157;28;20632;-67
2023/03/03 05:44:28;;;;;;;24.40;8.13;;;5.00;99.90;;;;;;4211158;28;20032;-63
2023/03/03 05:46:29;;;;;;;19.43;7.33;;;5.00;99.90;;;;;;4209948;28;20060;-62
2023/03/03 05:48:30;;;;;;;19.53;8.97;;;5.00;99.90;;;;;;4211286;28;20054;-62
2023/03/03 05:50:32;;;;;;;22.57;8.23;;;5.10;99.90;;;;;;4210433;28;20089;-64
2023/03/03 05:52:33;;;;;;;21.30;8.97;;;5.10;99.90;;;;;;4211392;28;20443;-62
2023/03/03 05:54:34;;;;;;;18.90;7.80;;;5.10;99.90;;;;;;4209715;28;20061;-61
2023/03/03 05:56:35;;;;;;;26.67;10.00;;;5.10;99.90;;;;;;4210976;28;20032;-62
2023/03/03 05:58:36;;;;;;;21.33;7.17;;;5.10;99.90;;;;;;4210669;28;20024;-61
2023/03/03 06:00:37;;;;;;;16.03;7.73;;;5.10;99.90;;;;;;4209786;28;20036;-62
2023/03/03 06:02:39;;;;;;;22.63;7.47;;;5.10;99.90;;;;;;4211329;28;20438;-62
2023/03/03 06:04:41;;;;;;;15.23;7.47;;;5.10;99.90;;;;;;4209725;28;20078;-62
2023/03/03 06:06:42;;;;;;;14.77;6.97;;;5.20;99.90;;;;;;4210687;28;20044;-61
2023/03/03 06:08:43;;;;;;;15.27;7.07;;;5.20;99.90;;;;;;4209897;28;20887;-63
2023/03/03 06:10:44;;;;;;;19.47;7.73;;;5.20;99.90;;;;;;4210541;28;20036;-62
2023/03/03 06:12:45;;;;;;;15.30;7.27;;;5.20;99.90;;;;;;4208818;28;20070;-63
2023/03/03 06:14:46;;;;;;;20.10;8.70;;;5.20;99.90;;;;;;4210026;28;20101;-59
2023/03/03 06:16:48;;;;;;;16.90;8.07;;;5.20;99.90;;;;;;4208470;28;20101;-61
2023/03/03 06:18:49;;;;;;;18.93;9.27;;;5.30;99.90;;;;;;4210893;28;20024;-61
2023/03/03 06:20:52;;;;;;;18.43;8.47;;;5.30;99.90;;;;;;4210000;28;20383;-63
2023/03/03 06:22:53;;;;;;;15.50;7.17;;;5.40;99.90;;;;;;4210937;28;20036;-65
2023/03/03 06:24:54;;;;;;;22.70;8.63;;;5.40;99.90;;;;;;4209693;28;20101;-61
2023/03/03 06:26:57;;;;;;;14.70;7.20;;;5.40;99.90;;;;;;4214267;28;20073;-61
2023/03/03 06:28:58;;;;;;;18.03;7.87;;;5.40;99.90;;;;;;4213660;28;20438;-61
2023/03/03 06:30:59;;;;;;;21.60;7.77;;;5.50;99.90;;;;;;4212312;28;20028;-60
2023/03/03 06:33:00;;;;;;;15.50;8.03;;;5.50;99.90;;;;;;4213923;28;20082;-62
2023/03/03 06:35:02;;;;;;;23.67;10.13;;;5.50;99.90;;;;;;4213056;28;20028;-62
2023/03/03 06:37:03;;;;;;;16.13;8.47;;;5.50;99.90;;;;;;4214276;28;20070;-61
2023/03/03 06:39:04;;;;;;;26.40;9.67;;;5.60;99.90;;;;;;4213060;28;20036;-64
2023/03/03 06:41:07;;;;;;;16.30;9.23;;;5.60;99.90;;;;;;4214329;28;20027;-61
2023/03/03 06:43:08;;;;;;;23.27;9.07;;;5.70;99.90;;;;;;4213168;28;20488;-62
2023/03/03 06:45:10;;;;;;;21.73;9.63;;;5.80;99.90;;;;;;4214038;28;20089;-63
2023/03/03 06:47:11;;;;;;;23.20;10.50;;;5.80;99.90;;;;;;4213067;28;20039;-61
2023/03/03 06:49:12;;;;;;;30.83;9.90;;;5.90;99.90;;;;;;4214106;28;20101;-61
2023/03/03 06:51:29;;;;;;;21.20;7.83;;;5.90;99.90;;;;;;4213104;28;20566;-62
2023/03/03 06:53:31;;;;;;;19.83;8.30;;;5.90;99.90;;;;;;4214362;28;20097;-62
2023/03/03 06:55:33;;;;;;;29.77;9.30;;;5.90;99.90;;;;;;4213270;28;20097;-61
2023/03/03 06:57:34;;;;;;;25.03;12.43;;;5.90;99.90;;;;;;4214384;28;20476;-60
2023/03/03 06:59:35;;;;;;;30.07;13.27;;;6.00;99.90;;;;;;4213075;28;20040;-61
2023/03/03 07:01:37;;;;;;;27.67;13.23;;;6.00;99.90;;;;;;4213279;28;20086;-61
2023/03/03 07:03:38;;;;;;;24.77;12.00;;;6.10;99.90;;;;;;4213113;28;20020;-61
2023/03/03 07:05:39;;;;;;;23.10;12.43;;;6.10;99.90;;;;;;4212818;28;20090;-62
2023/03/03 07:07:40;;;;;;;30.77;13.90;;;6.20;99.90;;;;;;4213550;28;20093;-62
2023/03/03 07:09:47;;;;;;;31.43;14.40;;;6.20;99.90;;;;;;4212574;28;20491;-61
2023/03/03 07:11:50;;;;;;;20.93;11.73;;;6.30;99.90;;;;;;4213713;28;20434;-61
2023/03/03 07:13:54;;;;;;;22.10;10.80;;;6.40;99.90;;;;;;4212155;28;20020;-63
2023/03/03 07:16:00;;;;;;;27.10;11.23;;;6.50;99.90;;;;;;4213578;28;20032;-61
2023/03/03 07:18:08;;;;;;;23.17;10.10;;;6.60;99.90;;;;;;4212686;28;20036;-60
2023/03/03 07:20:21;;;;;;;20.13;9.67;;;6.60;99.90;;;;;;4213539;28;20035;-61
2023/03/03 07:22:26;;;;;;;20.27;9.13;;;6.70;99.90;;;;;;4212564;28;20106;-65
2023/03/03 07:24:29;;;;;;;20.77;10.13;;;6.70;99.90;;;;;;4213320;28;20093;-63
2023/03/03 07:26:31;;;;;;;27.33;11.37;;;6.70;99.90;;;;;;4212686;28;20158;-61
2023/03/03 07:28:33;;;;;;;23.20;11.47;;;6.80;99.90;;;;;;4213386;28;20434;-61
2023/03/03 07:30:34;;;;;;;34.10;13.33;;;6.90;99.90;;;;;;4211913;28;20038;-61
2023/03/03 07:32:44;;;;;;;23.03;10.30;;;6.90;99.90;;;;;;4213254;28;20127;-63
2023/03/03 07:34:49;;;;;;;17.73;8.93;;;7.00;99.90;;;;;;4212128;28;20156;-61
2023/03/03 07:36:58;;;;;;;25.90;10.07;;;7.00;99.90;;;;;;4212866;28;20277;-64
2023/03/03 07:39:04;;;;;;;22.60;9.63;;;7.00;99.90;;;;;;4211983;28;20101;-62
2023/03/03 07:41:13;;;;;;;26.17;9.37;;;7.10;99.90;;;;;;4213335;28;20044;-62
2023/03/03 07:43:36;;;;;;;18.10;9.30;;;7.10;99.90;;;;;;4212062;28;20028;-62
2023/03/03 07:45:37;;;;;;;23.33;9.47;;;7.20;99.90;;;;;;4213271;28;20020;-62
2023/03/03 07:47:38;;;;;;;16.83;9.47;;;7.20;99.90;;;;;;4212005;28;20097;-64
2023/03/03 07:49:39;;;;;;;18.33;8.80;;;7.30;99.90;;;;;;4213383;28;20036;-62
2023/03/03 07:51:41;;;;;;;18.87;10.43;;;7.40;99.90;;;;;;4211999;28;20077;-64
2023/03/03 07:53:42;;;;;;;24.53;10.03;;;7.50;99.90;;;;;;4213067;28;20024;-63
2023/03/03 07:55:44;;;;;;;18.57;9.47;;;7.50;99.90;;;;;;4212740;28;20086;-62
2023/03/03 07:57:45;;;;;;;21.77;10.67;;;7.60;99.90;;;;;;4213395;28;20615;-64
2023/03/03 07:59:49;;;;;;;25.53;9.87;;;7.80;99.90;;;;;;4212629;28;20040;-61
2023/03/03 08:01:57;;;;;;;18.63;9.43;;;8.00;99.90;;;;;;4212074;28;20415;-64
2023/03/03 08:03:59;;;;;;;26.30;12.10;;;8.10;99.90;;;;;;4212511;28;20468;-61
2023/03/03 08:06:09;;;;;;;32.13;14.37;;;8.20;99.90;;;;;;4211692;28;20027;-62
2023/03/03 08:08:32;;;;;;;26.27;10.68;;;8.10;99.90;;;;;;4212722;28;20073;-65
2023/03/03 08:10:54;;;;;;;18.87;9.97;;;8.20;99.90;;;;;;4212121;28;20109;-61
2023/03/03 08:12:55;;;;;;;37.20;17.10;;;8.20;99.90;;;;;;4212105;28;20041;-61
2023/03/03 08:15:17;;;;;;;20.73;10.47;;;8.20;99.90;;;;;;4211969;28;20020;-61
2023/03/03 08:17:21;;;;;;;29.70;14.20;;;8.20;99.90;;;;;;4211755;28;20419;-61
2023/03/03 08:19:23;;;;;;;26.60;12.17;;;8.30;99.90;;;;;;4211878;28;20032;-61
2023/03/03 08:21:25;;;;;;;19.70;10.70;;;8.40;99.90;;;;;;4211682;28;20032;-63
2023/03/03 08:23:26;;;;;;;27.23;11.73;;;8.50;99.90;;;;;;4211696;28;20024;-61
2023/03/03 08:25:28;;;;;;;28.53;11.57;;;8.60;99.90;;;;;;4212180;28;20044;-63
2023/03/03 08:27:29;;;;;;;30.17;12.13;;;8.60;99.90;;;;;;4211715;28;20109;-65
2023/03/03 08:29:30;;;;;;;25.33;12.87;;;8.70;99.90;;;;;;4212745;28;20036;-64
2023/03/03 08:31:31;;;;;;;25.53;11.80;;;8.80;99.90;;;;;;4211667;28;20052;-63
2023/03/03 08:33:32;;;;;;;30.63;13.67;;;8.90;99.90;;;;;;4212403;28;20051;-62
2023/03/03 08:35:34;;;;;;;28.93;12.73;;;9.00;99.90;;;;;;4211399;28;20035;-62
2023/03/03 08:37:35;;;;;;;29.33;12.70;;;8.90;99.90;;;;;;4212326;28;20435;-61
2023/03/03 08:39:36;;;;;;;28.40;13.00;;;9.00;99.90;;;;;;4211231;28;20036;-62
2023/03/03 08:41:39;;;;;;;25.50;13.37;;;9.10;99.90;;;;;;4212310;28;20069;-62
2023/03/03 08:43:40;;;;;;;32.03;14.60;;;9.30;99.90;;;;;;4211312;28;20377;-64
2023/03/03 08:45:45;;;;;;;23.77;11.37;;;9.40;99.90;;;;;;4211995;28;20357;-64
2023/03/03 08:47:46;;;;;;;23.07;10.60;;;9.40;99.90;;;;;;4210272;28;20180;-62
2023/03/03 08:49:48;;;;;;;21.37;11.03;;;9.50;99.90;;;;;;4211407;28;20040;-62
2023/03/03 08:51:49;;;;;;;17.13;9.33;;;9.50;99.90;;;;;;4211451;28;20415;-64
2023/03/03 08:53:51;;;;;;;20.47;9.43;;;9.60;99.90;;;;;;4211719;28;20090;-62
2023/03/03 08:55:52;;;;;;;17.47;9.53;;;9.50;99.90;;;;;;4211740;28;20073;-61
2023/03/03 08:57:53;;;;;;;20.77;9.67;;;9.70;99.90;;;;;;4211456;28;20081;-62
2023/03/03 08:59:54;;;;;;;26.50;9.97;;;9.90;99.90;;;;;;4212275;28;20483;-62
2023/03/03 09:01:56;;;;;;;14.80;6.90;;;10.10;99.90;;;;;;4211094;28;20036;-61
2023/03/03 09:03:57;;;;;;;13.57;6.77;;;10.10;99.90;;;;;;4212056;28;20043;-61
2023/03/03 09:05:59;;;;;;;8.40;4.50;;;10.40;99.90;;;;;;4210695;28;20040;-63
2023/03/03 09:08:00;;;;;;;10.00;4.43;;;10.60;99.90;;;;;;4211630;28;20032;-61
2023/03/03 09:10:01;;;;;;;12.97;4.50;;;10.90;99.90;;;;;;4210602;28;20114;-62
2023/03/03 09:12:16;;;;;;;10.70;4.70;;;10.80;99.90;;;;;;4211673;28;20055;-63
2023/03/03 09:14:19;;;;;;;14.97;4.70;;;10.70;99.90;;;;;;4210476;28;20128;-62
2023/03/03 09:16:21;;;;;;;9.13;4.40;;;10.50;99.90;;;;;;4211768;28;20536;-62
2023/03/03 09:18:35;;;;;;;9.37;4.60;;;10.40;99.90;;;;;;4210682;28;20131;-61
2023/03/03 09:20:41;;;;;;;9.40;5.00;;;10.30;99.90;;;;;;4211455;28;20514;-62
2023/03/03 09:22:44;;;;;;;11.10;5.40;;;10.20;99.90;;;;;;4210425;28;20089;-64
2023/03/03 09:24:47;;;;;;;14.57;5.00;;;10.10;99.90;;;;;;4211691;28;20048;-62
2023/03/03 09:26:48;;;;;;;18.00;5.50;;;10.00;99.90;;;;;;4210330;28;20039;-63
2023/03/03 09:28:49;;;;;;;9.20;4.17;;;10.00;99.90;;;;;;4211667;28;20077;-63
2023/03/03 09:30:52;;;;;;;9.77;4.60;;;9.90;99.90;;;;;;4210631;28;20525;-63
2023/03/03 09:32:56;;;;;;;11.00;5.10;;;10.20;99.90;;;;;;4210737;28;20024;-62
2023/03/03 09:34:59;;;;;;;11.13;4.80;;;10.30;99.90;;;;;;4210571;28;20031;-61
2023/03/03 09:37:00;;;;;;;7.83;4.03;;;10.10;99.90;;;;;;4210745;28;20033;-61
2023/03/03 09:39:18;;;;;;;69.10;12.87;;;10.00;99.90;;;;;;4210921;28;20035;-62
2023/03/03 09:41:23;;;;;;;11.80;3.90;;;10.10;99.90;;;;;;4210372;28;20020;-60
2023/03/03 09:43:48;;;;;;;8.33;3.40;;;10.30;99.90;;;;;;4210992;28;20036;-61
2023/03/03 09:46:11;;;;;;;7.67;3.20;;;10.60;99.90;;;;;;4210644;28;20077;-61
2023/03/03 09:48:35;;;;;;;12.50;3.57;;;10.40;95.70;;;;;;4210172;28;20086;-61
2023/03/03 09:50:45;;;;;;;7.47;3.33;;;10.20;97.50;;;;;;4211062;28;20024;-65
2023/03/03 09:53:30;;;;;;;6.05;3.30;;;10.40;97.70;;;;;;4210241;28;21478;-62
2023/03/03 09:55:37;;;;;;;40.23;5.83;;;10.70;97.30;;;;;;4211550;28;20119;-61
2023/03/03 09:58:18;;;;;;;25.40;6.00;;;10.80;95.40;;;;;;4210655;28;20028;-61
2023/03/03 10:00:41;;;;;;;19.07;4.93;;;10.60;95.50;;;;;;4210916;28;20032;-64
2023/03/03 10:03:02;;;;;;;24.67;5.33;;;10.50;95.10;;;;;;4210032;28;20088;-66
2023/03/03 10:05:32;;;;;;;7.53;3.30;;;10.30;96.30;;;;;;4210713;28;20032;-62
2023/03/03 10:07:53;;;;;;;13.13;4.60;;;10.30;96.20;;;;;;4210306;28;20039;-64
2023/03/03 10:10:44;;;;;;;10.90;3.53;;;10.50;97.00;;;;;;4209900;28;20369;-62
2023/03/03 10:13:02;;;;;;;75.18;11.90;;;10.40;96.30;;;;;;4210881;28;20032;-64
2023/03/03 10:15:40;;;;;;;26.13;6.77;;;10.20;94.90;;;;;;4210070;28;20061;-63
2023/03/03 10:17:52;;;;;;;7.23;3.33;;;9.90;95.70;;;;;;4211081;28;20085;-61
2023/03/03 10:20:11;;;;;;;10.40;4.20;;;9.80;97.00;;;;;;4209466;28;20033;-61
2023/03/03 10:22:23;;;;;;;10.37;4.00;;;10.00;97.20;;;;;;4210916;28;20036;-63
2023/03/03 10:24:41;;;;;;;7.23;3.53;;;10.10;96.30;;;;;;4209428;28;20277;-62
2023/03/03 10:27:03;;;;;;;12.90;4.27;;;10.30;96.80;;;;;;4210909;28;20047;-62
2023/03/03 10:29:28;;;;;;;12.40;3.60;;;10.30;96.70;;;;;;4210904;28;20035;-66
2023/03/03 10:31:49;;;;;;;7.90;3.77;;;10.30;97.00;;;;;;4210183;28;20559;-62
2023/03/03 10:34:00;;;;;;;;;;;10.40;97.20;;;;;;4211086;28;20032;-61
2023/03/03 10:36:04;;;;;;;9.55;4.07;;;10.40;95.70;;;;;;4209941;28;19904;-62
2023/03/03 10:38:29;;;;;;;8.23;3.43;;;10.50;96.50;;;;;;4210730;28;20054;-62
2023/03/03 10:40:44;;;;;;;6.80;3.50;;;10.70;96.20;;;;;;4209840;28;20058;-61
2023/03/03 10:42:45;;;;;;;25.57;5.47;;;10.80;95.10;;;;;;4210918;28;20032;-63
2023/03/03 10:45:09;;;;;;;28.67;6.67;;;10.80;95.40;;;;;;4209729;28;20032;-62
2023/03/03 10:47:16;;;;;;;10.73;3.07;;;10.70;95.40;;;;;;4210609;28;20466;-61